Beaver Falls, PA

4:55 AM EST on November 13, 2019 (GMT -0500)
Beaver County

Weather History for KBVI - September, 2019

Change the Weather History Date:

Friday, September 6, 2019

  Actual Average Record
Temperature  
Mean Temperature 66 °F -  
Max Temperature 78 °F 76 °F 89 °F (2007)
Min Temperature 53 °F 58 °F 33 °F (1996)
Growing Degree Days 16 (Base 50)    
Moisture  
Dew Point 56 °F    
Average Humidity 73    
Maximum Humidity 94    
Minimum Humidity 46    
Precipitation  
Precipitation 0.00 in - - ()
Sea Level Pressure  
Sea Level Pressure 29.92 in    
Wind  
Wind Speed 2 mph (NW)    
Max Wind Speed 8 mph    
Max Gust Speed 16 mph    
Visibility 10 miles    
Events      
Averages and records for this station are not official NWS values.
T = Trace of Precipitation, MM = Missing Value Source: NWS Daily Summary

Daily Weather History Graph

Daily Weather History Graph

Search for Another Location

Airport or City:

Astronomy

Sep. 06, 2019 Rise Set
Actual Time 6:53 AM EDT 7:46 PM EDT
Civil Twilight 6:25 AM EDT 8:13 PM EDT
Nautical Twilight 5:52 AM EDT 8:46 PM EDT
Astronomical Twilight 5:17 AM EDT 9:21 PM EDT
Moon 3:02 PM EDT (9/6) No Moon Set
Length of Visible Light 13h 48m
Length of Day
12h 52m
First Quarter, 55% of the Moon is Illuminated
Sep 6
First Quarter
Sep 14
Full
Sep 21
Last Quarter
Sep 28
New
Oct 5
First Quarter

Hourly Weather History & Observations

Time (EDT) Temp. Dew Point Humidity Pressure Visibility Wind Dir Wind Speed Gust Speed Precip Events Conditions
12:15 AM 59.0 °F 54.9 °F 86% 30.03 in 10.0 mi North 3.5 mph - N/A   Clear
12:35 AM 57.6 °F 54.1 °F 88% 30.03 in 10.0 mi North 3.5 mph - N/A   Clear
12:55 AM 57.6 °F 54.3 °F 89% 30.03 in 10.0 mi North 3.5 mph - N/A   Clear
1:15 AM 57.6 °F 54.3 °F 89% 30.03 in 10.0 mi NNW 3.5 mph - N/A   Clear
1:35 AM 57.2 °F 54.0 °F 89% 30.03 in 10.0 mi Calm Calm - N/A   Clear
1:55 AM 56.5 °F 53.8 °F 91% 30.02 in 10.0 mi Calm Calm - N/A   Clear
1:56 AM 56.5 °F 53.8 °F 91% 30.02 in 10.0 mi Calm Calm - N/A   Clear
2:15 AM 56.3 °F 53.8 °F 91% 30.01 in 10.0 mi North 3.5 mph - N/A   Clear
2:35 AM 56.3 °F 53.6 °F 91% 30.00 in 10.0 mi North 3.5 mph - N/A   Clear
2:55 AM 55.9 °F 53.4 °F 91% 30.00 in 10.0 mi Calm Calm - N/A   Clear
2:56 AM 55.8 °F 53.4 °F 92% 30.00 in 10.0 mi Calm Calm - N/A   Clear
3:15 AM 55.8 °F 53.2 °F 91% 29.99 in 10.0 mi Calm Calm - N/A   Clear
3:16 AM 55.8 °F 53.2 °F 91% 29.99 in 10.0 mi Calm Calm - N/A   Clear
3:35 AM 55.0 °F 52.5 °F 91% 29.98 in 10.0 mi Calm Calm - N/A   Clear
3:55 AM 54.9 °F 52.7 °F 92% 29.98 in 10.0 mi Calm Calm - N/A   Clear
3:56 AM 54.9 °F 52.7 °F 92% 29.98 in 10.0 mi Calm Calm - N/A   Clear
4:15 AM 54.5 °F 52.3 °F 92% 29.96 in 10.0 mi Calm Calm - N/A   Clear
4:16 AM 54.5 °F 52.3 °F 92% 29.96 in 10.0 mi Calm Calm - N/A   Clear
4:35 AM 54.3 °F 52.0 °F 92% 29.97 in 10.0 mi Calm Calm - N/A   Clear
4:55 AM 54.0 °F 51.8 °F 92% 29.98 in 10.0 mi NNW 3.5 mph - N/A   Clear
4:56 AM 53.8 °F 51.8 °F 93% 29.98 in 10.0 mi NNW 3.5 mph - N/A   Clear
5:15 AM 54.0 °F 52.0 °F 93% 29.98 in 10.0 mi Calm Calm - N/A   Clear
5:35 AM 53.6 °F 51.8 °F 94% 29.97 in 10.0 mi Calm Calm - N/A   Clear
5:36 AM 53.6 °F 51.8 °F 94% 29.97 in 10.0 mi Calm Calm - N/A   Clear
5:55 AM 54.0 °F 52.2 °F 94% 29.98 in 10.0 mi Calm Calm - N/A   Clear
5:56 AM 53.8 °F 52.0 °F 94% 29.98 in 10.0 mi Calm Calm - N/A   Clear
6:15 AM 53.8 °F 52.0 °F 94% 29.97 in 10.0 mi Calm Calm - N/A   Clear
6:35 AM 53.6 °F 51.4 °F 92% 29.98 in 10.0 mi Calm Calm - N/A   Clear
6:36 AM 53.6 °F 51.6 °F 93% 29.98 in 10.0 mi Calm Calm - N/A   Clear
6:47 AM 53.6 °F 51.8 °F 94% 29.98 in 10.0 mi Calm Calm - N/A   Clear
6:55 AM 53.6 °F 51.8 °F 94% 29.98 in 10.0 mi Calm Calm - N/A   Clear
6:56 AM 53.6 °F 51.8 °F 94% 29.98 in 10.0 mi Calm Calm - N/A   Clear
7:15 AM 54.3 °F 52.5 °F 94% 29.98 in 10.0 mi Calm Calm - N/A   Clear
7:35 AM 54.9 °F 52.9 °F 93% 29.97 in 10.0 mi Calm Calm - N/A   Clear
7:47 AM 55.4 °F 53.6 °F 94% 29.97 in 10.0 mi Calm Calm - N/A   Clear
7:55 AM 56.5 °F 54.5 °F 93% 29.97 in 10.0 mi Calm Calm - N/A   Clear
7:56 AM 56.5 °F 54.5 °F 93% 29.97 in 10.0 mi Calm Calm - N/A   Clear
8:15 AM 58.5 °F 54.7 °F 87% 29.97 in 10.0 mi East 3.5 mph - N/A   Clear
8:35 AM 59.7 °F 54.7 °F 83% 29.96 in 10.0 mi Calm Calm - N/A   Clear
8:47 AM 60.8 °F 55.4 °F 82% 29.96 in 10.0 mi SE 3.5 mph - N/A   Clear
8:55 AM 61.2 °F 54.9 °F 80% 29.96 in 10.0 mi East 3.5 mph - N/A   Clear
8:56 AM 61.3 °F 54.9 °F 79% 29.96 in 10.0 mi Calm Calm - N/A   Clear
9:15 AM 62.8 °F 55.8 °F 78% 29.96 in 10.0 mi SE 4.6 mph - N/A   Clear
9:16 AM 62.8 °F 55.6 °F 77% 29.96 in 10.0 mi SE 3.5 mph - N/A   Clear
9:35 AM 63.9 °F 56.1 °F 76% 29.95 in 10.0 mi Calm Calm - N/A   Clear
9:36 AM 64.0 °F 56.3 °F 76% 29.95 in 10.0 mi Calm Calm - N/A   Clear
9:47 AM 66.2 °F 57.2 °F 73% 29.95 in 10.0 mi ESE 4.6 mph - N/A   Clear
9:55 AM 66.0 °F 56.7 °F 72% 29.94 in 10.0 mi ESE 4.6 mph - N/A   Clear
10:15 AM 67.1 °F 57.2 °F 70% 29.93 in 10.0 mi Calm Calm - N/A   Clear
10:16 AM 67.5 °F 57.7 °F 71% 29.93 in 10.0 mi Calm Calm - N/A   Clear
10:35 AM 69.8 °F 58.3 °F 67% 29.93 in 10.0 mi South 3.5 mph - N/A   Clear
10:47 AM 69.8 °F 57.2 °F 64% 29.93 in 10.0 mi South 3.5 mph - N/A   Clear
10:55 AM 71.4 °F 57.6 °F 62% 29.93 in 10.0 mi SSW 3.5 mph - N/A   Clear
11:15 AM 71.2 °F 56.3 °F 59% 29.92 in 10.0 mi Calm Calm - N/A   Clear
11:35 AM 73.0 °F 56.8 °F 57% 29.92 in 10.0 mi South 3.5 mph - N/A   Clear
11:36 AM 73.2 °F 57.0 °F 57% 29.92 in 10.0 mi SSE 5.8 mph - N/A   Clear
11:47 AM 73.4 °F 57.2 °F 57% 29.91 in 10.0 mi SSE 3.5 mph - N/A   Scattered Clouds
11:55 AM 73.4 °F 56.7 °F 56% 29.91 in 10.0 mi Calm Calm - N/A   Scattered Clouds
12:15 PM 73.8 °F 57.2 °F 56% 29.90 in 10.0 mi SSW 4.6 mph - N/A   Scattered Clouds
12:35 PM 73.6 °F 56.5 °F 55% 29.90 in 10.0 mi Calm Calm - N/A   Mostly Cloudy
12:36 PM 73.0 °F 56.5 °F 56% 29.90 in 10.0 mi Calm Calm - N/A   Mostly Cloudy
12:47 PM 73.4 °F 57.2 °F 57% 29.89 in 10.0 mi West 5.8 mph - N/A   Mostly Cloudy
12:55 PM 74.1 °F 57.0 °F 55% 29.89 in 10.0 mi West 3.5 mph - N/A   Mostly Cloudy
1:15 PM 76.6 °F 57.4 °F 51% 29.88 in 10.0 mi Calm Calm - N/A   Scattered Clouds
1:16 PM 76.8 °F 57.4 °F 51% 29.88 in 10.0 mi Calm Calm - N/A   Scattered Clouds
1:35 PM 78.1 °F 57.6 °F 49% 29.88 in 10.0 mi Calm Calm - N/A   Scattered Clouds
1:36 PM 78.3 °F 58.1 °F 50% 29.88 in 10.0 mi Calm Calm - N/A   Scattered Clouds
1:55 PM 78.1 °F 57.0 °F 48% 29.88 in 10.0 mi SSE 3.5 mph - N/A   Mostly Cloudy
2:15 PM 77.2 °F 54.7 °F 46% 29.87 in 10.0 mi WSW 3.5 mph - N/A   Scattered Clouds
2:16 PM 77.4 °F 55.2 °F 46% 29.87 in 10.0 mi SW 4.6 mph - N/A   Scattered Clouds
2:35 PM 77.4 °F 56.5 °F 48% 29.87 in 10.0 mi West 3.5 mph - N/A   Mostly Cloudy
2:36 PM 77.5 °F 56.1 °F 47% 29.87 in 10.0 mi West 3.5 mph - N/A   Mostly Cloudy
2:47 PM 77.0 °F 55.4 °F 47% 29.87 in 10.0 mi West 5.8 mph - N/A   Overcast
2:55 PM 78.1 °F 56.8 °F 48% 29.86 in 10.0 mi West 5.8 mph - N/A   Mostly Cloudy
3:15 PM 76.6 °F 55.4 °F 48% 29.87 in 10.0 mi NW 6.9 mph - N/A   Mostly Cloudy
3:16 PM 76.5 °F 55.2 °F 48% 29.87 in 10.0 mi NW 4.6 mph - N/A   Mostly Cloudy
3:35 PM 75.7 °F 55.2 °F 49% 29.86 in 10.0 mi WNW 8.1 mph 16.1 mph N/A   Mostly Cloudy
3:36 PM 75.9 °F 55.4 °F 49% 29.86 in 10.0 mi West 6.9 mph 16.1 mph N/A   Mostly Cloudy
3:55 PM 75.0 °F 54.9 °F 49% 29.86 in 10.0 mi WNW 5.8 mph - N/A   Overcast
4:15 PM 75.7 °F 54.7 °F 48% 29.85 in 10.0 mi NW 6.9 mph - N/A   Overcast
4:16 PM 75.6 °F 55.0 °F 49% 29.85 in 10.0 mi NW 5.8 mph - N/A   Overcast
4:35 PM 74.7 °F 55.2 °F 51% 29.86 in 10.0 mi West 5.8 mph - N/A   Overcast
4:47 PM 77.0 °F 55.4 °F 47% 29.85 in 10.0 mi WNW 6.9 mph - N/A   Overcast
4:55 PM 73.4 °F 56.3 °F 55% 29.85 in 10.0 mi WNW 5.8 mph - N/A   Overcast
4:56 PM 73.4 °F 56.3 °F 55% 29.85 in 10.0 mi WNW 4.6 mph - N/A   Overcast
5:15 PM 73.4 °F 56.7 °F 56% 29.85 in 10.0 mi NW 4.6 mph - N/A   Overcast
5:16 PM 73.4 °F 56.8 °F 56% 29.85 in 10.0 mi NW 4.6 mph - N/A   Overcast
5:35 PM 72.7 °F 56.7 °F 57% 29.84 in 10.0 mi NNW 3.5 mph - N/A   Mostly Cloudy
5:36 PM 72.7 °F 56.5 °F 57% 29.84 in 10.0 mi Calm Calm - N/A   Mostly Cloudy
5:47 PM 71.6 °F 57.2 °F 60% 29.85 in 10.0 mi Calm Calm - N/A   Mostly Cloudy
5:55 PM 72.3 °F 56.8 °F 58% 29.85 in 10.0 mi NW 3.5 mph - N/A   Mostly Cloudy
6:15 PM 72.5 °F 56.8 °F 58% 29.86 in 10.0 mi WNW 3.5 mph - N/A   Mostly Cloudy
6:35 PM 71.4 °F 57.6 °F 62% 29.86 in 10.0 mi WNW 3.5 mph - N/A   Overcast
6:36 PM 71.4 °F 57.6 °F 62% 29.86 in 10.0 mi WNW 3.5 mph - N/A   Overcast
6:55 PM 70.9 °F 57.6 °F 63% 29.86 in 10.0 mi WNW 3.5 mph - N/A   Overcast
7:35 PM 69.3 °F 57.2 °F 65% 29.87 in 10.0 mi NNW 3.5 mph - N/A   Scattered Clouds
7:55 PM 68.0 °F 58.3 °F 71% 29.88 in 10.0 mi NNW 4.6 mph - N/A   Scattered Clouds
7:56 PM 68.0 °F 58.3 °F 71% 29.88 in 10.0 mi NNW 3.5 mph - N/A   Scattered Clouds
8:15 PM 67.1 °F 58.6 °F 74% 29.89 in 10.0 mi NNW 6.9 mph - N/A   Scattered Clouds
8:16 PM 67.1 °F 58.6 °F 74% 29.89 in 10.0 mi NNW 6.9 mph - N/A   Scattered Clouds
8:35 PM 66.2 °F 58.6 °F 77% 29.89 in 10.0 mi NNW 5.8 mph - N/A   Mostly Cloudy
8:47 PM 66.2 °F 57.2 °F 73% 29.89 in 10.0 mi Calm Calm - N/A   Scattered Clouds
8:55 PM 65.3 °F 58.5 °F 78% 29.90 in 10.0 mi North 4.6 mph - N/A   Scattered Clouds
9:15 PM 64.6 °F 58.3 °F 80% 29.90 in 10.0 mi NNW 4.6 mph - N/A   Clear
9:16 PM 64.6 °F 58.3 °F 80% 29.90 in 10.0 mi NNW 3.5 mph - N/A   Clear
9:35 PM 64.0 °F 58.3 °F 82% 29.91 in 10.0 mi NNW 3.5 mph - N/A   Clear
9:55 PM 63.0 °F 58.1 °F 84% 29.91 in 10.0 mi Calm Calm - N/A   Clear
9:56 PM 63.0 °F 58.1 °F 84% 29.91 in 10.0 mi Calm Calm - N/A   Clear
10:15 PM 62.2 °F 58.1 °F 86% 29.91 in 10.0 mi Calm Calm - N/A   Clear
10:35 PM 62.1 °F 58.1 °F 87% 29.91 in 10.0 mi NNW 3.5 mph - N/A   Clear
10:55 PM 61.7 °F 57.6 °F 86% 29.91 in 10.0 mi NNW 3.5 mph - N/A   Clear
10:56 PM 61.7 °F 57.6 °F 86% 29.91 in 10.0 mi NNW 3.5 mph - N/A   Clear
11:15 PM 61.3 °F 57.6 °F 87% 29.91 in 10.0 mi NNW 3.5 mph - N/A   Clear
11:35 PM 61.0 °F 57.6 °F 88% 29.91 in 10.0 mi NW 3.5 mph - N/A   Clear
11:55 PM 60.1 °F 57.2 °F 90% 29.91 in 10.0 mi Calm Calm - N/A   Clear
11:56 PM 60.1 °F 57.2 °F 90% 29.91 in 10.0 mi Calm Calm - N/A   Clear